This is the latest recevied weather packets stored in our database for station/object KC1TLF-15. If no packets are shown the sender has not sent any weather packets the latest 10 day(s).
| Time | Temp. | Humidity | Pressure | Rain* | Wind** | Luminosity | Snow |
|---|---|---|---|---|---|---|---|
| 1777666270 | 16.11° C | 34% | 1016.6 hPa | 0 mm | 1.34 m/s, 282° | 178 W/m² | - |
| 1777665672 | 16.11° C | 37% | 1016.5 hPa | 0 mm | 1.34 m/s, 328° | - | - |
| 1777665071 | 16.67° C | 34% | 1016.7 hPa | 0 mm | 3.13 m/s, 323° | 245 W/m² | - |
| 1777664471 | 16.11° C | 34% | 1016.7 hPa | 0 mm | 1.34 m/s, 294° | - | - |
| 1777663871 | 17.22° C | 34% | 1016.8 hPa | 0 mm | 1.34 m/s, 284° | 227 W/m² | - |
| 1777663271 | 16.67° C | 33% | 1016.9 hPa | 0 mm | 0.89 m/s, 322° | 111 W/m² | - |
| 1777662671 | 16.11° C | 37% | 1016.8 hPa | 0 mm | 0.89 m/s, 277° | - | - |
| 1777662070 | 15° C | 36% | 1017 hPa | 0 mm | 0.89 m/s, 279° | - | - |
| 1777661471 | 15° C | 39% | 1016.9 hPa | 0 mm | 2.24 m/s, 307° | - | - |
| 1777660871 | 15.56° C | 40% | 1017 hPa | 0 mm | 2.24 m/s, 342° | 260 W/m² | - |
| 1777660270 | 15.56° C | 37% | 1017.2 hPa | 0 mm | 1.79 m/s, 326° | 635 W/m² | - |
| 1777659670 | 15.56° C | 39% | 1017.3 hPa | 0 mm | 1.79 m/s, 347° | 209 W/m² | - |
| 1777659071 | 15° C | 39% | 1017.3 hPa | 0 mm | 1.79 m/s, 357° | 250 W/m² | - |
| 1777658470 | 15.56° C | 40% | 1017.4 hPa | 0 mm | 0.89 m/s, 336° | 180 W/m² | - |
| 1777657870 | 15.56° C | 40% | 1017.3 hPa | 0 mm | 4.02 m/s, 341° | 146 W/m² | - |
| 1777657270 | 15.56° C | 45% | 1017.1 hPa | 0 mm | 1.34 m/s, 291° | 231 W/m² | - |
| 1777656670 | 15° C | 44% | 1017.2 hPa | 0 mm | 1.34 m/s, 316° | 112 W/m² | - |
| 1777656070 | 15° C | 41% | 1017.4 hPa | 0 mm | 0.89 m/s, 307° | 409 W/m² | - |
| 1777655471 | 15° C | 43% | 1017.4 hPa | 0 mm | 1.79 m/s, 298° | 484 W/m² | - |
| 1777654870 | 14.44° C | 41% | 1017.5 hPa | 0 mm | 2.24 m/s, 278° | 110 W/m² | - |
| 1777654271 | 13.89° C | 44% | 1017.5 hPa | 0 mm | 1.34 m/s, 326° | 781 W/m² | - |
| 1777653671 | 14.44° C | 45% | 1017.5 hPa | 0 mm | 2.24 m/s, 307° | 462 W/m² | - |
| 1777653070 | 13.33° C | 46% | 1017.8 hPa | 0 mm | 0.89 m/s, 7° | 801 W/m² | - |
| 1777652469 | 14.44° C | 43% | 1017.6 hPa | 0 mm | 0.45 m/s, 296° | 796 W/m² | - |
| 1777651870 | 13.89° C | 45% | 1017.8 hPa | 0 mm | 1.79 m/s, 316° | 720 W/m² | - |
* Rain latest hour (hover to see other rain measurements)
** Current wind speed in m/s (hover to see current wind gust speed)